Terminal Aerodrome Forecast
Issued by NWS

Home | Current Version | Previous Version | Text Only | Print | Product List | Glossary On
Versions: 1 2 3 4 5 6 7 8 9 10 11 12 13 14 15 16 17 18 19 20 21 22 23 24
587
FTUS43 KGLD 222354
TAFMCK
TAF
KMCK 222354Z 2300/2324 26004KT P6SM SCT200
     FM231900 27008KT P6SM FEW250
     FM232200 24008KT P6SM FEW250=

USA.gov is the U.S. government's official web portal to all federal, state and local government web resources and services.